Huvudsida
METAR-TAF:

METAR-TAF

Flygplatser :

Bolzano, Italien

latitud: 46-28N, longitud: 011-20E, höjd: 262 m

Aktuellt väderrapport

Denna rapport gjordes för 48 minuter sedan, klockan 10:50 UTC
Vind 2 kt varierande vindriktning
Temperatur 28°C
Fuktighet 37%
Tryck 1011 hPa
Sikt 10 km eller mer
Få moln på en höjd av 5000 ft, Högtornande cumulus.

METAR: LIPB 201050Z VRB02KT 9999 FEW050TCU 28/12 Q1011 RMK MON LIB

Tid: 13:38 (11:38 UTC)

Väderprognos

Denna rapport gjordes för 6 timmar och 38 minuter sedan, klockan 05:00 UTC
Prognos gäller från 20 kl. 06 UTC till 21 kl. 06 UTC
Vind 5 kt varierande vindriktning
Sikt 10 km eller mer
Spridda moln på en höjd av 4000 ft
Temporärt
från 20 kl. 12 UTC till 20 kl. 18 UTC
åska, regn

TAF: LIPB 200500Z 2006/2106 VRB05KT 9999 SCT040 TEMPO 2012/2018 TSRA

Aktuella väderrapporter och prognoser från 4000 flygplatser (METAR- och TAF-rapporter).

De tillgängliga stationerna syns som gula och röda prickar på kartan.

För musen över prickarna för att se namnen på stationerna.

Klicka sedan för att få väderrapporter och prognoser.

För att ändra kartan: Klicka på de gröna knapparna med ett svart kors på för att zooma in; den gröna knappen med ett streck på för att zooma ut; eller på de gröna pilarna för angränsande kartor.


METAR-TAF: